Aérodrome :
LOGIN :

S'inscrire | Disclaimer

   EN    FR    IT 

 










Légende :    VFR   VFR Marginal   IFR   IFR Intensif   IFR Très Intensif
Visi : 
Plafond : 
>= 8 km
>= 3000ft
5 à 8 km
1000 à 3000 ft
1500m à 5 km
500 à 1000 ft
800 à 1500m
200 à 500 ft
< 800m
< 200 ft
Symboles :   Orages  Brouillard  Fortes neiges  Fortes précipitations  Vent > 20 kt
SIGMETs :   Divers  Orages  Givrage  Turbulence  Onde Orograph.  Cendres Volcan.






- Altitude de l'aérodrome : 1682 ft
- Code IATA : VIT


LEVT - Vitoria Gasteiz

DERNIER METAR :
  • 311630Z 22009KT 190V250 CAVOK 18/12 Q1024

METARs EXPIRÉS :
  • 311600Z 22012KT 190V250 CAVOK 19/12 Q1023
  • 311530Z 22011KT 9999 FEW050 20/12 Q1023
  • 311500Z 21008KT 170V250 9999 FEW050 20/12 Q1024
  • 311430Z 20009KT 160V230 CAVOK 20/11 Q1024
  • 311400Z 24012KT 200V270 CAVOK 21/10 Q1024

TAF TAF LEVT
Valide du 31 à 12h jusqu'au 01 à 12h UTC


311100Z 3112/0112 20009KT CAVOK TX21/3114Z TN11/3122Z
PROB30
TEMPO 3112/3116 20015G25KT
PROB30
TEMPO 3122/0106 4000 BR



MET'MAP, la Météo Aéronautique d'un coup d'oeil ! - Copyright ORBIFLY Décembre 2007 - Disclaimer

ORBIFLY MET'MAP TEAM :

Programmation & Développement : Alexandra Zaïnal
Sur une idée originale de : Baudouin d'Aumeries
Assistance à la programmation : Marc-Olivier Méhu
Soutien technique & logistique : Manuel Goepfert

Contact : metmap@orbifly.com




SOURCES & CREDITS :

   NOAA